sensor_id;sensor_type;location;lat;lon;timestamp;P1;durP1;ratioP1;P2;durP2;ratioP2
56201;SDS011;42117;50.360;3.508;2023-01-29T00:02:18;50.83;;;21.73;;
56201;SDS011;42117;50.360;3.508;2023-01-29T00:04:44;52.67;;;22.25;;
56201;SDS011;42117;50.360;3.508;2023-01-29T00:07:10;52.55;;;21.73;;
56201;SDS011;42117;50.360;3.508;2023-01-29T00:09:36;51.08;;;22.52;;
56201;SDS011;42117;50.360;3.508;2023-01-29T00:12:02;58.08;;;23.83;;
56201;SDS011;42117;50.360;3.508;2023-01-29T00:14:28;53.38;;;23.20;;
56201;SDS011;42117;50.360;3.508;2023-01-29T00:16:54;51.70;;;23.88;;
56201;SDS011;42117;50.360;3.508;2023-01-29T00:19:20;55.10;;;24.30;;
56201;SDS011;42117;50.360;3.508;2023-01-29T00:21:46;57.33;;;23.42;;
56201;SDS011;42117;50.360;3.508;2023-01-29T00:24:12;58.30;;;22.65;;
56201;SDS011;42117;50.360;3.508;2023-01-29T00:26:38;55.73;;;23.67;;
56201;SDS011;42117;50.360;3.508;2023-01-29T00:29:04;55.78;;;24.45;;
56201;SDS011;42117;50.360;3.508;2023-01-29T00:31:30;58.67;;;24.33;;
56201;SDS011;42117;50.360;3.508;2023-01-29T00:33:56;60.97;;;25.17;;
56201;SDS011;42117;50.360;3.508;2023-01-29T00:36:23;59.80;;;24.95;;
56201;SDS011;42117;50.360;3.508;2023-01-29T00:38:53;53.75;;;23.27;;
56201;SDS011;42117;50.360;3.508;2023-01-29T00:41:22;56.20;;;23.42;;
56201;SDS011;42117;50.360;3.508;2023-01-29T00:44:07;58.80;;;24.70;;
56201;SDS011;42117;50.360;3.508;2023-01-29T00:46:52;55.58;;;23.65;;
56201;SDS011;42117;50.360;3.508;2023-01-29T00:49:18;57.78;;;23.48;;
56201;SDS011;42117;50.360;3.508;2023-01-29T00:51:44;60.90;;;24.48;;
56201;SDS011;42117;50.360;3.508;2023-01-29T00:54:33;61.70;;;24.20;;
56201;SDS011;42117;50.360;3.508;2023-01-29T00:56:59;63.30;;;26.00;;
56201;SDS011;42117;50.360;3.508;2023-01-29T00:59:25;59.35;;;24.50;;
56201;SDS011;42117;50.360;3.508;2023-01-29T01:01:51;54.20;;;22.98;;
56201;SDS011;42117;50.360;3.508;2023-01-29T01:04:36;59.20;;;24.63;;
56201;SDS011;42117;50.360;3.508;2023-01-29T01:07:02;62.28;;;25.23;;
56201;SDS011;42117;50.360;3.508;2023-01-29T01:09:28;56.40;;;24.47;;
56201;SDS011;42117;50.360;3.508;2023-01-29T01:12:13;63.33;;;24.67;;
56201;SDS011;42117;50.360;3.508;2023-01-29T01:14:39;60.80;;;25.02;;
56201;SDS011;42117;50.360;3.508;2023-01-29T01:17:07;62.20;;;24.55;;
56201;SDS011;42117;50.360;3.508;2023-01-29T01:19:33;60.80;;;24.02;;
56201;SDS011;42117;50.360;3.508;2023-01-29T01:21:59;58.28;;;23.98;;
56201;SDS011;42117;50.360;3.508;2023-01-29T01:24:25;57.42;;;23.42;;
56201;SDS011;42117;50.360;3.508;2023-01-29T01:26:51;61.67;;;24.35;;
56201;SDS011;42117;50.360;3.508;2023-01-29T01:29:17;56.90;;;24.08;;
56201;SDS011;42117;50.360;3.508;2023-01-29T01:31:43;63.13;;;24.60;;
56201;SDS011;42117;50.360;3.508;2023-01-29T01:34:09;61.88;;;26.30;;
56201;SDS011;42117;50.360;3.508;2023-01-29T01:36:35;58.40;;;24.27;;
56201;SDS011;42117;50.360;3.508;2023-01-29T01:39:02;60.28;;;25.77;;
56201;SDS011;42117;50.360;3.508;2023-01-29T01:41:28;61.92;;;26.08;;
56201;SDS011;42117;50.360;3.508;2023-01-29T01:43:55;69.90;;;28.08;;
56201;SDS011;42117;50.360;3.508;2023-01-29T01:46:22;62.80;;;26.00;;
56201;SDS011;42117;50.360;3.508;2023-01-29T01:48:52;63.10;;;26.40;;
56201;SDS011;42117;50.360;3.508;2023-01-29T01:51:20;64.88;;;26.95;;
56201;SDS011;42117;50.360;3.508;2023-01-29T01:53:50;63.83;;;25.25;;
56201;SDS011;42117;50.360;3.508;2023-01-29T01:56:20;66.03;;;26.50;;
56201;SDS011;42117;50.360;3.508;2023-01-29T01:58:49;65.03;;;24.80;;
56201;SDS011;42117;50.360;3.508;2023-01-29T02:01:15;56.45;;;24.02;;
56201;SDS011;42117;50.360;3.508;2023-01-29T02:04:02;60.17;;;23.85;;
56201;SDS011;42117;50.360;3.508;2023-01-29T02:06:48;54.75;;;22.58;;
56201;SDS011;42117;50.360;3.508;2023-01-29T02:09:34;60.38;;;24.80;;
56201;SDS011;42117;50.360;3.508;2023-01-29T02:12:04;58.47;;;23.73;;
56201;SDS011;42117;50.360;3.508;2023-01-29T02:14:30;58.97;;;24.27;;
56201;SDS011;42117;50.360;3.508;2023-01-29T02:17:01;57.67;;;23.45;;
56201;SDS011;42117;50.360;3.508;2023-01-29T02:31:00;59.20;;;24.75;;
56201;SDS011;42117;50.360;3.508;2023-01-29T02:35:34;57.63;;;24.57;;
56201;SDS011;42117;50.360;3.508;2023-01-29T02:40:35;57.15;;;24.40;;
56201;SDS011;42117;50.360;3.508;2023-01-29T02:43:08;59.63;;;24.58;;
56201;SDS011;42117;50.360;3.508;2023-01-29T02:45:42;58.13;;;24.00;;
56201;SDS011;42117;50.360;3.508;2023-01-29T02:48:11;58.25;;;23.80;;
56201;SDS011;42117;50.360;3.508;2023-01-29T02:53:26;57.67;;;23.33;;
56201;SDS011;42117;50.360;3.508;2023-01-29T02:56:07;53.70;;;23.50;;
56201;SDS011;42117;50.360;3.508;2023-01-29T03:01:06;57.22;;;24.55;;
56201;SDS011;42117;50.360;3.508;2023-01-29T03:03:35;57.65;;;24.92;;
56201;SDS011;42117;50.360;3.508;2023-01-29T03:06:08;56.45;;;24.75;;
56201;SDS011;42117;50.360;3.508;2023-01-29T03:08:44;59.05;;;25.63;;
56201;SDS011;42117;50.360;3.508;2023-01-29T03:11:14;62.00;;;24.98;;
56201;SDS011;42117;50.360;3.508;2023-01-29T03:16:42;61.15;;;23.33;;
56201;SDS011;42117;50.360;3.508;2023-01-29T03:19:17;58.78;;;24.17;;
56201;SDS011;42117;50.360;3.508;2023-01-29T03:21:46;61.28;;;24.52;;
56201;SDS011;42117;50.360;3.508;2023-01-29T03:24:21;56.28;;;24.30;;
56201;SDS011;42117;50.360;3.508;2023-01-29T03:27:08;64.05;;;24.77;;
56201;SDS011;42117;50.360;3.508;2023-01-29T03:29:54;58.33;;;23.92;;
56201;SDS011;42117;50.360;3.508;2023-01-29T03:32:39;61.50;;;23.60;;
56201;SDS011;42117;50.360;3.508;2023-01-29T03:35:07;55.57;;;24.47;;
56201;SDS011;42117;50.360;3.508;2023-01-29T03:37:39;60.93;;;24.13;;
56201;SDS011;42117;50.360;3.508;2023-01-29T03:40:07;58.75;;;24.13;;
56201;SDS011;42117;50.360;3.508;2023-01-29T03:42:37;62.13;;;25.33;;
56201;SDS011;42117;50.360;3.508;2023-01-29T03:45:13;61.55;;;24.73;;
56201;SDS011;42117;50.360;3.508;2023-01-29T03:47:42;57.65;;;23.95;;
56201;SDS011;42117;50.360;3.508;2023-01-29T03:52:41;56.97;;;23.90;;
56201;SDS011;42117;50.360;3.508;2023-01-29T03:55:19;58.70;;;24.03;;
56201;SDS011;42117;50.360;3.508;2023-01-29T04:00:14;57.95;;;23.10;;
56201;SDS011;42117;50.360;3.508;2023-01-29T04:02:54;54.63;;;23.58;;
56201;SDS011;42117;50.360;3.508;2023-01-29T04:05:24;52.92;;;22.65;;
56201;SDS011;42117;50.360;3.508;2023-01-29T04:07:53;57.97;;;22.88;;
56201;SDS011;42117;50.360;3.508;2023-01-29T04:10:24;59.50;;;22.77;;
56201;SDS011;42117;50.360;3.508;2023-01-29T04:12:54;55.85;;;23.50;;
56201;SDS011;42117;50.360;3.508;2023-01-29T04:15:21;56.83;;;23.90;;
56201;SDS011;42117;50.360;3.508;2023-01-29T04:17:49;62.20;;;24.67;;
56201;SDS011;42117;50.360;3.508;2023-01-29T04:20:16;52.25;;;22.80;;
56201;SDS011;42117;50.360;3.508;2023-01-29T04:22:46;57.05;;;23.30;;
56201;SDS011;42117;50.360;3.508;2023-01-29T04:25:14;59.22;;;23.52;;
56201;SDS011;42117;50.360;3.508;2023-01-29T04:27:42;59.30;;;23.93;;
56201;SDS011;42117;50.360;3.508;2023-01-29T04:30:57;57.17;;;23.88;;
56201;SDS011;42117;50.360;3.508;2023-01-29T04:38:13;61.53;;;23.17;;
56201;SDS011;42117;50.360;3.508;2023-01-29T04:40:46;55.10;;;23.27;;
56201;SDS011;42117;50.360;3.508;2023-01-29T04:48:13;58.05;;;23.00;;
56201;SDS011;42117;50.360;3.508;2023-01-29T04:50:45;50.65;;;22.88;;
56201;SDS011;42117;50.360;3.508;2023-01-29T04:53:16;58.60;;;23.70;;
56201;SDS011;42117;50.360;3.508;2023-01-29T04:55:50;57.95;;;23.00;;
56201;SDS011;42117;50.360;3.508;2023-01-29T04:58:29;54.05;;;22.27;;
56201;SDS011;42117;50.360;3.508;2023-01-29T05:00:57;52.85;;;21.90;;
56201;SDS011;42117;50.360;3.508;2023-01-29T05:03:24;56.33;;;23.20;;
56201;SDS011;42117;50.360;3.508;2023-01-29T05:05:51;51.17;;;22.42;;
56201;SDS011;42117;50.360;3.508;2023-01-29T05:08:19;55.72;;;22.77;;
56201;SDS011;42117;50.360;3.508;2023-01-29T05:10:46;56.75;;;23.88;;
56201;SDS011;42117;50.360;3.508;2023-01-29T05:13:14;55.20;;;22.23;;
56201;SDS011;42117;50.360;3.508;2023-01-29T05:15:45;53.00;;;21.90;;
56201;SDS011;42117;50.360;3.508;2023-01-29T05:18:13;54.03;;;22.38;;
56201;SDS011;42117;50.360;3.508;2023-01-29T05:20:39;56.63;;;24.00;;
56201;SDS011;42117;50.360;3.508;2023-01-29T05:23:14;59.35;;;24.73;;
56201;SDS011;42117;50.360;3.508;2023-01-29T05:25:40;56.17;;;22.60;;
56201;SDS011;42117;50.360;3.508;2023-01-29T05:28:07;45.95;;;20.02;;
56201;SDS011;42117;50.360;3.508;2023-01-29T05:30:44;51.15;;;20.42;;
56201;SDS011;42117;50.360;3.508;2023-01-29T05:33:12;43.77;;;18.73;;
56201;SDS011;42117;50.360;3.508;2023-01-29T05:35:39;53.17;;;22.17;;
56201;SDS011;42117;50.360;3.508;2023-01-29T05:38:05;55.10;;;23.35;;
56201;SDS011;42117;50.360;3.508;2023-01-29T05:40:31;56.78;;;22.25;;
56201;SDS011;42117;50.360;3.508;2023-01-29T05:42:57;50.42;;;21.98;;
56201;SDS011;42117;50.360;3.508;2023-01-29T05:45:23;50.55;;;21.58;;
56201;SDS011;42117;50.360;3.508;2023-01-29T05:47:50;57.97;;;22.48;;
56201;SDS011;42117;50.360;3.508;2023-01-29T05:50:16;54.60;;;22.03;;
56201;SDS011;42117;50.360;3.508;2023-01-29T05:52:42;49.47;;;19.42;;
56201;SDS011;42117;50.360;3.508;2023-01-29T05:55:08;51.67;;;21.10;;
56201;SDS011;42117;50.360;3.508;2023-01-29T05:57:34;50.92;;;20.42;;
56201;SDS011;42117;50.360;3.508;2023-01-29T06:00:00;57.90;;;22.77;;
56201;SDS011;42117;50.360;3.508;2023-01-29T06:02:29;50.03;;;20.38;;
56201;SDS011;42117;50.360;3.508;2023-01-29T06:04:56;54.85;;;22.75;;
56201;SDS011;42117;50.360;3.508;2023-01-29T06:07:22;50.30;;;21.30;;
56201;SDS011;42117;50.360;3.508;2023-01-29T06:09:48;53.03;;;23.08;;
56201;SDS011;42117;50.360;3.508;2023-01-29T06:12:14;56.97;;;21.95;;
56201;SDS011;42117;50.360;3.508;2023-01-29T06:14:40;53.77;;;22.70;;
56201;SDS011;42117;50.360;3.508;2023-01-29T06:17:06;45.55;;;20.00;;
56201;SDS011;42117;50.360;3.508;2023-01-29T06:19:32;47.70;;;19.23;;
56201;SDS011;42117;50.360;3.508;2023-01-29T06:21:58;54.63;;;21.83;;
56201;SDS011;42117;50.360;3.508;2023-01-29T06:24:24;53.83;;;22.52;;
56201;SDS011;42117;50.360;3.508;2023-01-29T06:26:50;42.27;;;16.10;;
56201;SDS011;42117;50.360;3.508;2023-01-29T06:29:16;53.20;;;21.55;;
56201;SDS011;42117;50.360;3.508;2023-01-29T06:31:42;54.28;;;20.35;;
56201;SDS011;42117;50.360;3.508;2023-01-29T06:34:08;52.97;;;20.92;;
56201;SDS011;42117;50.360;3.508;2023-01-29T06:36:34;57.75;;;23.15;;
56201;SDS011;42117;50.360;3.508;2023-01-29T06:39:00;54.85;;;21.17;;
56201;SDS011;42117;50.360;3.508;2023-01-29T06:41:26;56.70;;;21.55;;
56201;SDS011;42117;50.360;3.508;2023-01-29T06:43:52;51.75;;;20.90;;
56201;SDS011;42117;50.360;3.508;2023-01-29T06:46:18;53.13;;;20.73;;
56201;SDS011;42117;50.360;3.508;2023-01-29T06:48:44;53.97;;;21.40;;
56201;SDS011;42117;50.360;3.508;2023-01-29T06:51:10;53.40;;;19.95;;
56201;SDS011;42117;50.360;3.508;2023-01-29T06:53:37;53.93;;;20.43;;
56201;SDS011;42117;50.360;3.508;2023-01-29T06:56:04;49.65;;;19.85;;
56201;SDS011;42117;50.360;3.508;2023-01-29T06:58:30;52.35;;;20.77;;
56201;SDS011;42117;50.360;3.508;2023-01-29T07:01:06;58.65;;;20.65;;
56201;SDS011;42117;50.360;3.508;2023-01-29T07:03:32;52.42;;;20.73;;
56201;SDS011;42117;50.360;3.508;2023-01-29T07:05:58;53.78;;;20.75;;
56201;SDS011;42117;50.360;3.508;2023-01-29T07:08:24;50.88;;;19.63;;
56201;SDS011;42117;50.360;3.508;2023-01-29T07:10:51;50.00;;;19.83;;
56201;SDS011;42117;50.360;3.508;2023-01-29T07:13:17;52.72;;;21.85;;
56201;SDS011;42117;50.360;3.508;2023-01-29T07:15:43;52.75;;;21.70;;
56201;SDS011;42117;50.360;3.508;2023-01-29T07:18:09;52.90;;;21.90;;
56201;SDS011;42117;50.360;3.508;2023-01-29T07:20:39;47.97;;;19.97;;
56201;SDS011;42117;50.360;3.508;2023-01-29T07:23:05;53.97;;;20.80;;
56201;SDS011;42117;50.360;3.508;2023-01-29T07:25:32;54.42;;;20.85;;
56201;SDS011;42117;50.360;3.508;2023-01-29T07:28:02;53.88;;;21.38;;
56201;SDS011;42117;50.360;3.508;2023-01-29T07:30:28;47.92;;;19.77;;
56201;SDS011;42117;50.360;3.508;2023-01-29T07:32:54;49.28;;;19.60;;
56201;SDS011;42117;50.360;3.508;2023-01-29T07:35:20;49.03;;;20.65;;
56201;SDS011;42117;50.360;3.508;2023-01-29T07:37:49;51.42;;;20.25;;
56201;SDS011;42117;50.360;3.508;2023-01-29T07:40:15;48.20;;;20.27;;
56201;SDS011;42117;50.360;3.508;2023-01-29T07:42:41;52.15;;;21.23;;
56201;SDS011;42117;50.360;3.508;2023-01-29T07:45:08;47.28;;;20.02;;
56201;SDS011;42117;50.360;3.508;2023-01-29T07:47:35;49.25;;;21.10;;
56201;SDS011;42117;50.360;3.508;2023-01-29T07:50:01;61.05;;;24.20;;
56201;SDS011;42117;50.360;3.508;2023-01-29T07:52:31;52.70;;;21.55;;
56201;SDS011;42117;50.360;3.508;2023-01-29T07:54:57;54.42;;;22.13;;
56201;SDS011;42117;50.360;3.508;2023-01-29T07:57:23;47.28;;;19.27;;
56201;SDS011;42117;50.360;3.508;2023-01-29T07:59:49;46.53;;;18.17;;
56201;SDS011;42117;50.360;3.508;2023-01-29T08:02:15;51.55;;;20.67;;
56201;SDS011;42117;50.360;3.508;2023-01-29T08:04:41;53.42;;;21.27;;
56201;SDS011;42117;50.360;3.508;2023-01-29T08:07:07;47.05;;;19.23;;
56201;SDS011;42117;50.360;3.508;2023-01-29T08:09:34;50.50;;;20.38;;
56201;SDS011;42117;50.360;3.508;2023-01-29T08:12:00;51.72;;;21.50;;
56201;SDS011;42117;50.360;3.508;2023-01-29T08:14:26;52.45;;;21.90;;
56201;SDS011;42117;50.360;3.508;2023-01-29T08:16:52;48.33;;;20.95;;
56201;SDS011;42117;50.360;3.508;2023-01-29T08:19:18;46.17;;;18.65;;
56201;SDS011;42117;50.360;3.508;2023-01-29T08:21:44;56.67;;;22.65;;
56201;SDS011;42117;50.360;3.508;2023-01-29T08:24:10;53.03;;;22.95;;
56201;SDS011;42117;50.360;3.508;2023-01-29T08:26:36;52.95;;;21.00;;
56201;SDS011;42117;50.360;3.508;2023-01-29T08:29:02;53.35;;;22.15;;
56201;SDS011;42117;50.360;3.508;2023-01-29T08:31:28;52.63;;;21.23;;
56201;SDS011;42117;50.360;3.508;2023-01-29T08:33:54;51.47;;;21.65;;
56201;SDS011;42117;50.360;3.508;2023-01-29T08:36:20;56.30;;;22.08;;
56201;SDS011;42117;50.360;3.508;2023-01-29T08:38:46;50.60;;;21.88;;
56201;SDS011;42117;50.360;3.508;2023-01-29T08:41:12;52.08;;;21.27;;
56201;SDS011;42117;50.360;3.508;2023-01-29T08:43:38;50.88;;;21.42;;
56201;SDS011;42117;50.360;3.508;2023-01-29T08:46:05;46.08;;;19.85;;
56201;SDS011;42117;50.360;3.508;2023-01-29T08:48:31;46.28;;;19.90;;
56201;SDS011;42117;50.360;3.508;2023-01-29T08:50:58;56.60;;;22.02;;
56201;SDS011;42117;50.360;3.508;2023-01-29T08:53:24;51.72;;;21.80;;
56201;SDS011;42117;50.360;3.508;2023-01-29T08:55:50;52.00;;;21.70;;
56201;SDS011;42117;50.360;3.508;2023-01-29T08:58:17;49.72;;;20.80;;
56201;SDS011;42117;50.360;3.508;2023-01-29T09:00:43;46.93;;;20.20;;
56201;SDS011;42117;50.360;3.508;2023-01-29T09:03:09;58.53;;;22.55;;
56201;SDS011;42117;50.360;3.508;2023-01-29T09:05:36;53.67;;;22.00;;
56201;SDS011;42117;50.360;3.508;2023-01-29T09:08:03;47.70;;;21.25;;
56201;SDS011;42117;50.360;3.508;2023-01-29T09:10:29;55.30;;;22.10;;
56201;SDS011;42117;50.360;3.508;2023-01-29T09:12:55;50.40;;;20.88;;
56201;SDS011;42117;50.360;3.508;2023-01-29T09:15:21;52.55;;;21.80;;
56201;SDS011;42117;50.360;3.508;2023-01-29T09:17:47;55.60;;;22.02;;
56201;SDS011;42117;50.360;3.508;2023-01-29T09:20:13;53.00;;;22.13;;
56201;SDS011;42117;50.360;3.508;2023-01-29T09:22:39;48.95;;;19.77;;
56201;SDS011;42117;50.360;3.508;2023-01-29T09:25:05;51.42;;;19.92;;
56201;SDS011;42117;50.360;3.508;2023-01-29T09:27:32;50.60;;;21.25;;
56201;SDS011;42117;50.360;3.508;2023-01-29T09:29:58;52.75;;;20.90;;
56201;SDS011;42117;50.360;3.508;2023-01-29T09:32:24;49.55;;;20.48;;
56201;SDS011;42117;50.360;3.508;2023-01-29T09:34:50;52.10;;;21.83;;
56201;SDS011;42117;50.360;3.508;2023-01-29T09:37:16;53.30;;;22.13;;
56201;SDS011;42117;50.360;3.508;2023-01-29T09:39:42;51.75;;;21.88;;
56201;SDS011;42117;50.360;3.508;2023-01-29T09:42:14;51.13;;;21.35;;
56201;SDS011;42117;50.360;3.508;2023-01-29T09:45:03;47.53;;;20.52;;
56201;SDS011;42117;50.360;3.508;2023-01-29T09:47:31;50.30;;;20.98;;
56201;SDS011;42117;50.360;3.508;2023-01-29T09:49:59;48.08;;;20.38;;
56201;SDS011;42117;50.360;3.508;2023-01-29T09:52:30;47.40;;;19.60;;
56201;SDS011;42117;50.360;3.508;2023-01-29T09:57:46;48.67;;;19.65;;
56201;SDS011;42117;50.360;3.508;2023-01-29T10:00:14;47.15;;;20.10;;
56201;SDS011;42117;50.360;3.508;2023-01-29T10:07:55;44.92;;;17.73;;
56201;SDS011;42117;50.360;3.508;2023-01-29T10:10:48;43.53;;;18.40;;
56201;SDS011;42117;50.360;3.508;2023-01-29T10:15:44;45.35;;;20.05;;
56201;SDS011;42117;50.360;3.508;2023-01-29T10:18:28;41.20;;;18.02;;
56201;SDS011;42117;50.360;3.508;2023-01-29T10:23:42;45.88;;;18.08;;
56201;SDS011;42117;50.360;3.508;2023-01-29T10:26:11;51.75;;;20.55;;
56201;SDS011;42117;50.360;3.508;2023-01-29T10:28:41;36.78;;;16.13;;
56201;SDS011;42117;50.360;3.508;2023-01-29T10:31:31;48.13;;;19.50;;
56201;SDS011;42117;50.360;3.508;2023-01-29T10:33:59;48.88;;;20.83;;
56201;SDS011;42117;50.360;3.508;2023-01-29T10:36:31;44.27;;;17.07;;
56201;SDS011;42117;50.360;3.508;2023-01-29T10:38:58;47.30;;;19.33;;
56201;SDS011;42117;50.360;3.508;2023-01-29T10:44:16;29.05;;;12.02;;
56201;SDS011;42117;50.360;3.508;2023-01-29T10:52:19;34.25;;;14.90;;
56201;SDS011;42117;50.360;3.508;2023-01-29T10:55:11;43.60;;;18.38;;
56201;SDS011;42117;50.360;3.508;2023-01-29T11:00:12;45.03;;;18.55;;
56201;SDS011;42117;50.360;3.508;2023-01-29T11:02:43;42.67;;;16.67;;
56201;SDS011;42117;50.360;3.508;2023-01-29T11:07:42;41.63;;;17.17;;
56201;SDS011;42117;50.360;3.508;2023-01-29T11:10:12;40.33;;;17.85;;
56201;SDS011;42117;50.360;3.508;2023-01-29T11:12:39;44.92;;;19.45;;
56201;SDS011;42117;50.360;3.508;2023-01-29T11:17:36;42.60;;;18.42;;
56201;SDS011;42117;50.360;3.508;2023-01-29T11:20:02;36.72;;;16.27;;
56201;SDS011;42117;50.360;3.508;2023-01-29T11:22:31;34.53;;;15.23;;
56201;SDS011;42117;50.360;3.508;2023-01-29T11:27:34;35.30;;;16.17;;
56201;SDS011;42117;50.360;3.508;2023-01-29T11:30:04;45.63;;;17.27;;
56201;SDS011;42117;50.360;3.508;2023-01-29T11:32:33;48.13;;;18.88;;
56201;SDS011;42117;50.360;3.508;2023-01-29T11:35:01;49.03;;;20.48;;
56201;SDS011;42117;50.360;3.508;2023-01-29T11:37:34;50.95;;;19.98;;
56201;SDS011;42117;50.360;3.508;2023-01-29T11:40:01;45.40;;;19.20;;
56201;SDS011;42117;50.360;3.508;2023-01-29T11:42:30;40.58;;;17.20;;
56201;SDS011;42117;50.360;3.508;2023-01-29T11:44:57;37.05;;;15.73;;
56201;SDS011;42117;50.360;3.508;2023-01-29T11:47:27;49.30;;;20.35;;
56201;SDS011;42117;50.360;3.508;2023-01-29T11:49:54;44.40;;;16.42;;
56201;SDS011;42117;50.360;3.508;2023-01-29T11:52:22;40.95;;;16.73;;
56201;SDS011;42117;50.360;3.508;2023-01-29T11:54:49;43.55;;;17.10;;
56201;SDS011;42117;50.360;3.508;2023-01-29T11:59:49;46.17;;;18.98;;
56201;SDS011;42117;50.360;3.508;2023-01-29T12:02:21;38.00;;;17.50;;
56201;SDS011;42117;50.360;3.508;2023-01-29T12:04:47;38.45;;;17.30;;
56201;SDS011;42117;50.360;3.508;2023-01-29T12:07:14;42.47;;;17.80;;
56201;SDS011;42117;50.360;3.508;2023-01-29T12:09:41;40.33;;;17.83;;
56201;SDS011;42117;50.360;3.508;2023-01-29T12:12:29;38.35;;;17.48;;
56201;SDS011;42117;50.360;3.508;2023-01-29T12:15:13;43.27;;;17.70;;
56201;SDS011;42117;50.360;3.508;2023-01-29T12:17:40;35.92;;;15.23;;
56201;SDS011;42117;50.360;3.508;2023-01-29T12:20:12;38.63;;;15.80;;
56201;SDS011;42117;50.360;3.508;2023-01-29T12:26:10;37.72;;;17.08;;
56201;SDS011;42117;50.360;3.508;2023-01-29T12:33:30;37.58;;;17.02;;
56201;SDS011;42117;50.360;3.508;2023-01-29T12:36:04;37.90;;;15.77;;
56201;SDS011;42117;50.360;3.508;2023-01-29T12:38:32;35.83;;;16.55;;
56201;SDS011;42117;50.360;3.508;2023-01-29T12:41:05;34.22;;;14.57;;
56201;SDS011;42117;50.360;3.508;2023-01-29T12:43:41;37.78;;;16.08;;
56201;SDS011;42117;50.360;3.508;2023-01-29T12:46:10;37.05;;;16.08;;
56201;SDS011;42117;50.360;3.508;2023-01-29T12:48:38;38.33;;;17.48;;
56201;SDS011;42117;50.360;3.508;2023-01-29T12:51:53;39.63;;;16.33;;
56201;SDS011;42117;50.360;3.508;2023-01-29T12:53:57;39.47;;;16.40;;
56201;SDS011;42117;50.360;3.508;2023-01-29T12:58:53;39.55;;;16.13;;
56201;SDS011;42117;50.360;3.508;2023-01-29T13:01:30;41.13;;;17.43;;
56201;SDS011;42117;50.360;3.508;2023-01-29T13:06:29;25.85;;;12.30;;
56201;SDS011;42117;50.360;3.508;2023-01-29T13:09:00;35.97;;;16.10;;
56201;SDS011;42117;50.360;3.508;2023-01-29T13:11:29;28.98;;;12.88;;
56201;SDS011;42117;50.360;3.508;2023-01-29T13:16:29;39.75;;;16.88;;
56201;SDS011;42117;50.360;3.508;2023-01-29T13:21:32;15.68;;;8.25;;
56201;SDS011;42117;50.360;3.508;2023-01-29T13:24:03;33.00;;;14.35;;
56201;SDS011;42117;50.360;3.508;2023-01-29T13:26:30;32.57;;;14.90;;
56201;SDS011;42117;50.360;3.508;2023-01-29T13:28:58;31.30;;;11.80;;
56201;SDS011;42117;50.360;3.508;2023-01-29T13:31:37;33.45;;;14.85;;
56201;SDS011;42117;50.360;3.508;2023-01-29T13:35:11;34.45;;;15.30;;
56201;SDS011;42117;50.360;3.508;2023-01-29T13:37:01;37.90;;;15.67;;
56201;SDS011;42117;50.360;3.508;2023-01-29T13:39:29;36.55;;;15.82;;
56201;SDS011;42117;50.360;3.508;2023-01-29T13:41:56;25.58;;;11.93;;
56201;SDS011;42117;50.360;3.508;2023-01-29T13:44:24;37.13;;;15.27;;
56201;SDS011;42117;50.360;3.508;2023-01-29T13:46:58;39.85;;;16.90;;
56201;SDS011;42117;50.360;3.508;2023-01-29T13:49:30;39.53;;;17.58;;
56201;SDS011;42117;50.360;3.508;2023-01-29T13:51:57;38.53;;;16.57;;
56201;SDS011;42117;50.360;3.508;2023-01-29T13:54:23;36.47;;;15.57;;
56201;SDS011;42117;50.360;3.508;2023-01-29T13:59:20;25.58;;;12.18;;
56201;SDS011;42117;50.360;3.508;2023-01-29T14:06:53;33.10;;;15.27;;
56201;SDS011;42117;50.360;3.508;2023-01-29T14:09:32;34.70;;;14.57;;
56201;SDS011;42117;50.360;3.508;2023-01-29T14:11:58;32.90;;;14.85;;
56201;SDS011;42117;50.360;3.508;2023-01-29T14:17:09;31.77;;;14.43;;
56201;SDS011;42117;50.360;3.508;2023-01-29T14:19:35;12.02;;;5.90;;
56201;SDS011;42117;50.360;3.508;2023-01-29T14:22:01;18.17;;;9.05;;
56201;SDS011;42117;50.360;3.508;2023-01-29T14:24:28;27.77;;;12.93;;
56201;SDS011;42117;50.360;3.508;2023-01-29T14:26:55;21.67;;;10.40;;
56201;SDS011;42117;50.360;3.508;2023-01-29T14:29:23;30.02;;;14.40;;
56201;SDS011;42117;50.360;3.508;2023-01-29T14:34:41;34.70;;;15.13;;
56201;SDS011;42117;50.360;3.508;2023-01-29T14:39:42;25.05;;;10.80;;
56201;SDS011;42117;50.360;3.508;2023-01-29T14:42:52;34.92;;;15.80;;
56201;SDS011;42117;50.360;3.508;2023-01-29T14:49:53;30.50;;;13.85;;
56201;SDS011;42117;50.360;3.508;2023-01-29T14:52:36;25.83;;;13.73;;
56201;SDS011;42117;50.360;3.508;2023-01-29T14:55:04;21.67;;;9.52;;
56201;SDS011;42117;50.360;3.508;2023-01-29T14:57:31;23.70;;;10.10;;
56201;SDS011;42117;50.360;3.508;2023-01-29T15:00:14;25.05;;;11.23;;
56201;SDS011;42117;50.360;3.508;2023-01-29T15:02:42;35.97;;;16.40;;
56201;SDS011;42117;50.360;3.508;2023-01-29T15:05:13;20.33;;;9.13;;
56201;SDS011;42117;50.360;3.508;2023-01-29T15:10:22;34.60;;;15.50;;
56201;SDS011;42117;50.360;3.508;2023-01-29T15:18:05;31.67;;;14.32;;
56201;SDS011;42117;50.360;3.508;2023-01-29T15:20:39;34.90;;;14.48;;
56201;SDS011;42117;50.360;3.508;2023-01-29T15:25:51;11.80;;;5.90;;
56201;SDS011;42117;50.360;3.508;2023-01-29T15:28:19;30.17;;;12.93;;
56201;SDS011;42117;50.360;3.508;2023-01-29T15:30:45;26.77;;;12.32;;
56201;SDS011;42117;50.360;3.508;2023-01-29T15:33:15;35.90;;;15.63;;
56201;SDS011;42117;50.360;3.508;2023-01-29T15:35:41;18.37;;;7.53;;
56201;SDS011;42117;50.360;3.508;2023-01-29T15:40:39;28.73;;;11.70;;
56201;SDS011;42117;50.360;3.508;2023-01-29T15:45:50;26.90;;;11.63;;
56201;SDS011;42117;50.360;3.508;2023-01-29T15:48:17;27.33;;;12.98;;
56201;SDS011;42117;50.360;3.508;2023-01-29T15:50:44;21.30;;;11.35;;
56201;SDS011;42117;50.360;3.508;2023-01-29T15:53:16;27.35;;;11.77;;
56201;SDS011;42117;50.360;3.508;2023-01-29T15:55:44;34.05;;;13.98;;
56201;SDS011;42117;50.360;3.508;2023-01-29T15:58:12;25.70;;;12.23;;
56201;SDS011;42117;50.360;3.508;2023-01-29T16:00:40;13.50;;;6.97;;
56201;SDS011;42117;50.360;3.508;2023-01-29T16:03:13;21.40;;;8.93;;
56201;SDS011;42117;50.360;3.508;2023-01-29T16:05:39;14.60;;;7.53;;
56201;SDS011;42117;50.360;3.508;2023-01-29T16:08:05;29.50;;;14.05;;
56201;SDS011;42117;50.360;3.508;2023-01-29T16:10:32;15.97;;;9.20;;
56201;SDS011;42117;50.360;3.508;2023-01-29T16:12:58;36.33;;;13.40;;
56201;SDS011;42117;50.360;3.508;2023-01-29T16:15:29;25.17;;;11.40;;
56201;SDS011;42117;50.360;3.508;2023-01-29T16:17:56;23.95;;;11.82;;
56201;SDS011;42117;50.360;3.508;2023-01-29T16:20:31;22.40;;;10.43;;
56201;SDS011;42117;50.360;3.508;2023-01-29T16:22:58;33.35;;;14.95;;
56201;SDS011;42117;50.360;3.508;2023-01-29T16:25:24;20.30;;;9.87;;
56201;SDS011;42117;50.360;3.508;2023-01-29T16:27:50;31.15;;;11.23;;
56201;SDS011;42117;50.360;3.508;2023-01-29T16:30:16;21.08;;;10.38;;
56201;SDS011;42117;50.360;3.508;2023-01-29T16:32:43;24.27;;;11.10;;
56201;SDS011;42117;50.360;3.508;2023-01-29T16:35:13;31.52;;;12.77;;
56201;SDS011;42117;50.360;3.508;2023-01-29T16:37:39;22.08;;;9.73;;
56201;SDS011;42117;50.360;3.508;2023-01-29T16:40:11;15.77;;;7.35;;
56201;SDS011;42117;50.360;3.508;2023-01-29T16:42:38;32.97;;;14.50;;